createdAt,value
2018-03-30T00:00:48.664Z,2.95
2018-03-30T00:02:02.632Z,3.45
2018-03-30T00:03:05.869Z,4.40
2018-03-30T00:04:09.085Z,3.05
2018-03-30T00:05:13.058Z,2.60
2018-03-30T00:06:16.304Z,3.10
2018-03-30T00:07:19.490Z,2.80
2018-03-30T00:08:22.705Z,3.35
2018-03-30T00:09:37.910Z,2.60
2018-03-30T00:10:47.402Z,3.95
2018-03-30T00:11:50.614Z,3.10
2018-03-30T00:12:54.608Z,3.10
2018-03-30T00:13:58.597Z,3.00
2018-03-30T00:15:01.789Z,4.62
2018-03-30T00:16:05.768Z,3.28
2018-03-30T00:17:08.974Z,2.95
2018-03-30T00:18:12.940Z,3.53
2018-03-30T00:19:16.151Z,4.22
2018-03-30T00:20:20.143Z,2.97
2018-03-30T00:21:24.117Z,2.80
2018-03-30T00:22:27.319Z,2.53
2018-03-30T00:23:30.536Z,2.90
2018-03-30T00:24:33.814Z,2.75
2018-03-30T00:25:37.786Z,2.70
2018-03-30T00:26:40.992Z,2.90
2018-03-30T00:27:44.953Z,3.55
2018-03-30T00:28:48.153Z,2.90
2018-03-30T00:29:52.149Z,2.78
2018-03-30T00:30:55.368Z,3.08
2018-03-30T00:31:58.571Z,2.92
2018-03-30T00:33:01.832Z,3.50
2018-03-30T00:34:05.017Z,3.47
2018-03-30T00:35:08.241Z,5.15
2018-03-30T00:36:11.473Z,3.55
2018-03-30T00:37:15.438Z,2.72
2018-03-30T00:38:19.404Z,2.47
2018-03-30T00:39:22.656Z,2.33
2018-03-30T00:40:25.940Z,2.50
2018-03-30T00:41:29.147Z,3.33
2018-03-30T00:42:32.358Z,2.70
2018-03-30T00:43:35.574Z,2.95
2018-03-30T00:44:39.560Z,4.07
2018-03-30T00:45:42.787Z,3.15
2018-03-30T00:46:46.016Z,3.08
2018-03-30T00:47:49.230Z,3.53
2018-03-30T00:48:53.246Z,2.92
2018-03-30T00:49:56.515Z,2.65
2018-03-30T00:51:00.499Z,3.08
2018-03-30T00:52:04.479Z,2.90
2018-03-30T00:54:47.006Z,2.78
2018-03-30T00:55:50.213Z,2.80
2018-03-30T00:56:54.185Z,3.25
2018-03-30T00:57:57.413Z,3.05
2018-03-30T00:59:00.640Z,3.12
2018-03-30T01:00:04.612Z,3.20
2018-03-30T01:01:08.221Z,3.08
2018-03-30T01:02:11.398Z,3.28
2018-03-30T01:03:14.617Z,3.28
2018-03-30T01:04:17.821Z,3.80
2018-03-30T01:05:21.017Z,3.40
2018-03-30T01:06:24.264Z,3.40
2018-03-30T01:07:28.290Z,3.67
2018-03-30T01:08:31.548Z,3.25
2018-03-30T01:09:35.529Z,3.28
2018-03-30T01:10:38.734Z,3.72
2018-03-30T01:11:42.735Z,2.53
2018-03-30T01:12:45.933Z,3.55
2018-03-30T01:13:49.202Z,2.83
2018-03-30T01:14:53.184Z,3.00
2018-03-30T01:15:56.383Z,3.08
2018-03-30T01:17:00.370Z,3.60
2018-03-30T01:18:03.577Z,3.17
2018-03-30T01:19:06.780Z,2.70
2018-03-30T01:20:10.020Z,2.78
2018-03-30T01:21:13.254Z,3.90
2018-03-30T01:22:16.468Z,3.28
2018-03-30T01:23:19.690Z,3.30
2018-03-30T01:24:23.763Z,3.62
2018-03-30T01:25:26.977Z,4.22
2018-03-30T01:26:30.186Z,3.70
2018-03-30T01:27:33.387Z,3.53
2018-03-30T01:28:36.600Z,3.60
2018-03-30T01:29:39.789Z,5.18
2018-03-30T01:30:42.984Z,3.80
2018-03-30T01:31:46.192Z,4.00
2018-03-30T01:32:49.404Z,3.60
2018-03-30T01:33:52.605Z,3.45
2018-03-30T01:34:55.816Z,4.12
2018-03-30T01:35:59.013Z,4.10
2018-03-30T01:37:02.243Z,4.12
2018-03-30T01:38:05.512Z,3.67
2018-03-30T01:39:08.756Z,5.15
2018-03-30T01:40:12.705Z,4.30
2018-03-30T01:41:15.917Z,4.05
2018-03-30T01:42:19.880Z,4.55
2018-03-30T01:43:23.097Z,4.40
2018-03-30T01:44:27.085Z,6.25
2018-03-30T01:45:30.401Z,4.30
2018-03-30T01:46:33.604Z,3.95
2018-03-30T01:47:36.806Z,4.00
2018-03-30T01:48:40.011Z,4.03
2018-03-30T01:49:43.263Z,4.78
2018-03-30T01:50:46.504Z,4.35
2018-03-30T01:51:50.472Z,4.43
2018-03-30T01:52:53.673Z,4.10
2018-03-30T01:53:57.660Z,5.12
2018-03-30T01:55:00.848Z,4.78
2018-03-30T01:56:04.821Z,4.30
2018-03-30T01:57:08.021Z,4.78
2018-03-30T01:58:11.279Z,5.07
2018-03-30T01:59:14.500Z,4.40
2018-03-30T02:00:18.507Z,4.55
2018-03-30T02:01:22.487Z,4.10
2018-03-30T02:02:25.708Z,4.50
2018-03-30T02:03:28.935Z,4.87
2018-03-30T02:04:32.145Z,5.32
2018-03-30T02:05:35.345Z,4.95
2018-03-30T02:06:38.560Z,5.32
2018-03-30T02:07:41.768Z,5.28
2018-03-30T02:08:44.987Z,5.20
2018-03-30T02:09:48.214Z,5.82
2018-03-30T02:10:51.413Z,5.87
2018-03-30T02:11:54.640Z,4.93
2018-03-30T02:12:58.605Z,4.90
2018-03-30T02:14:01.805Z,5.40
2018-03-30T02:15:05.808Z,5.72
2018-03-30T02:16:09.792Z,5.53
2018-03-30T02:17:13.057Z,6.78
2018-03-30T02:18:16.255Z,5.22
2018-03-30T02:19:19.460Z,5.50
2018-03-30T02:20:23.451Z,7.15
2018-03-30T02:21:27.489Z,6.32
2018-03-30T02:22:31.432Z,6.45
2018-03-30T02:23:34.648Z,7.70
2018-03-30T02:24:38.656Z,6.60
2018-03-30T02:25:41.951Z,6.30
2018-03-30T02:26:45.176Z,6.97
2018-03-30T02:27:48.380Z,6.30
2018-03-30T02:28:51.613Z,6.53
2018-03-30T02:29:54.819Z,6.30
2018-03-30T02:30:58.027Z,5.93
2018-03-30T02:32:01.275Z,5.93
2018-03-30T02:33:04.470Z,6.50
2018-03-30T02:34:07.706Z,5.80
2018-03-30T02:35:11.669Z,6.80
2018-03-30T02:36:14.884Z,7.68
2018-03-30T02:37:18.110Z,6.62
2018-03-30T02:38:21.315Z,6.60
2018-03-30T02:39:24.517Z,7.05
2018-03-30T02:40:28.495Z,7.30
2018-03-30T02:41:31.705Z,7.85
2018-03-30T02:42:35.700Z,7.28
2018-03-30T02:43:39.703Z,6.95
2018-03-30T02:44:43.710Z,6.60
2018-03-30T02:45:47.701Z,7.45
2018-03-30T02:46:51.671Z,7.75
2018-03-30T02:47:54.876Z,8.05
2018-03-30T02:48:58.126Z,8.90
2018-03-30T02:50:01.414Z,8.02
2018-03-30T02:51:04.647Z,7.55
2018-03-30T02:52:08.650Z,7.90
2018-03-30T02:53:12.644Z,6.72
2018-03-30T02:54:16.664Z,8.55
2018-03-30T02:55:19.862Z,8.20
2018-03-30T02:56:23.082Z,8.93
2018-03-30T02:57:26.296Z,7.82
2018-03-30T02:58:29.557Z,8.05
2018-03-30T02:59:32.765Z,7.45
2018-03-30T03:00:36.075Z,7.82
2018-03-30T03:01:39.289Z,8.35
2018-03-30T03:02:42.503Z,8.55
2018-03-30T03:03:46.472Z,7.20
2018-03-30T03:04:49.784Z,6.70
2018-03-30T03:05:53.755Z,8.02
2018-03-30T03:06:56.969Z,8.55
2018-03-30T03:08:00.960Z,8.45
2018-03-30T03:09:04.222Z,7.78
2018-03-30T03:10:07.431Z,8.20
2018-03-30T03:11:11.400Z,7.43
2018-03-30T03:12:14.676Z,7.65
2018-03-30T03:13:17.865Z,7.35
2018-03-30T03:14:21.068Z,9.15
2018-03-30T03:15:24.392Z,8.23
2018-03-30T03:16:27.596Z,8.77
2018-03-30T03:17:30.805Z,8.95
2018-03-30T03:18:34.006Z,9.15
2018-03-30T03:19:37.999Z,9.25
2018-03-30T03:20:41.386Z,8.88
2018-03-30T03:21:44.609Z,8.40
2018-03-30T03:22:47.824Z,9.45
2018-03-30T03:23:51.024Z,9.75
2018-03-30T03:24:54.227Z,8.30
2018-03-30T03:25:58.198Z,9.25
2018-03-30T03:27:01.456Z,8.32
2018-03-30T03:28:04.657Z,8.32
2018-03-30T03:29:07.886Z,9.15
2018-03-30T03:30:11.874Z,9.10
2018-03-30T03:31:15.843Z,8.07
2018-03-30T03:32:19.062Z,7.72
2018-03-30T03:33:23.040Z,8.80
2018-03-30T03:34:26.239Z,9.20
2018-03-30T03:35:30.212Z,8.65
2018-03-30T03:36:33.422Z,7.70
2018-03-30T03:37:37.397Z,9.07
2018-03-30T03:38:40.702Z,8.85
2018-03-30T03:39:44.694Z,8.95
2018-03-30T03:40:47.907Z,9.18
2018-03-30T03:41:51.116Z,9.52
2018-03-30T03:42:54.325Z,8.82
2018-03-30T03:43:57.517Z,9.48
2018-03-30T03:45:00.749Z,8.48
2018-03-30T03:46:03.960Z,9.15
2018-03-30T03:47:07.166Z,10.68
2018-03-30T03:48:10.371Z,8.73
2018-03-30T03:49:14.345Z,7.97
2018-03-30T03:50:17.548Z,8.48
2018-03-30T03:51:21.540Z,9.30
2018-03-30T03:52:24.740Z,8.50
2018-03-30T03:53:28.740Z,8.75
2018-03-30T03:54:32.721Z,9.23
2018-03-30T03:55:36.696Z,9.07
2018-03-30T03:56:39.915Z,9.00
2018-03-30T03:57:43.875Z,9.02
2018-03-30T03:58:47.107Z,9.05
2018-03-30T03:59:51.061Z,8.45
2018-03-30T04:00:54.266Z,9.15
2018-03-30T04:01:57.505Z,8.63
2018-03-30T04:03:00.759Z,9.02
2018-03-30T04:04:03.964Z,9.30
2018-03-30T04:05:07.201Z,9.98
2018-03-30T04:06:10.403Z,9.50
2018-03-30T04:07:13.680Z,8.27
2018-03-30T04:08:17.648Z,8.80
2018-03-30T04:09:20.857Z,9.35
2018-03-30T04:10:24.832Z,8.90
2018-03-30T04:11:28.026Z,8.38
2018-03-30T04:12:32.007Z,9.82
2018-03-30T04:13:35.253Z,9.35
2018-03-30T04:14:39.194Z,9.48
2018-03-30T04:15:42.448Z,9.90
2018-03-30T04:16:45.644Z,8.48
2018-03-30T04:17:48.937Z,7.03
2018-03-30T04:18:52.156Z,8.32
2018-03-30T04:19:56.202Z,8.50
2018-03-30T04:20:59.391Z,9.15
2018-03-30T04:22:02.601Z,9.60
2018-03-30T04:23:05.811Z,8.70
2018-03-30T04:24:09.825Z,8.00
2018-03-30T04:25:13.044Z,9.20
2018-03-30T04:26:16.248Z,9.32
2018-03-30T04:27:30.537Z,8.80
2018-03-30T04:28:33.739Z,8.75
2018-03-30T04:29:36.978Z,8.55
2018-03-30T04:30:40.940Z,8.25
2018-03-30T04:31:44.145Z,9.95
2018-03-30T04:32:48.126Z,9.00
2018-03-30T04:33:51.332Z,8.82
2018-03-30T04:34:54.626Z,11.10
2018-03-30T04:35:58.626Z,9.65
2018-03-30T04:37:02.634Z,10.80
2018-03-30T04:38:06.622Z,9.20
2018-03-30T04:39:10.583Z,10.50
2018-03-30T04:40:13.818Z,11.77
2018-03-30T04:41:17.053Z,10.63
2018-03-30T04:42:20.301Z,12.10
2018-03-30T04:43:23.508Z,9.90
2018-03-30T04:44:26.723Z,10.98
2018-03-30T04:45:29.974Z,10.25
2018-03-30T04:46:33.165Z,11.52
2018-03-30T04:47:36.390Z,9.65
2018-03-30T04:48:40.387Z,10.60
2018-03-30T04:49:44.393Z,12.65
2018-03-30T04:50:48.366Z,12.35
2018-03-30T04:51:51.597Z,12.35
2018-03-30T04:52:54.819Z,12.80
2018-03-30T04:53:58.053Z,12.85
2018-03-30T04:55:01.261Z,11.48
2018-03-30T04:56:04.460Z,12.45
2018-03-30T04:57:07.711Z,13.35
2018-03-30T04:58:10.929Z,12.07
2018-03-30T04:59:14.146Z,12.55
2018-03-30T05:00:18.129Z,12.93
2018-03-30T05:01:21.346Z,12.65
2018-03-30T05:02:24.570Z,12.88
2018-03-30T05:03:27.899Z,12.95
2018-03-30T05:04:31.904Z,13.02
2018-03-30T05:05:35.147Z,13.55
2018-03-30T05:06:38.384Z,14.00
2018-03-30T05:07:42.364Z,13.10
2018-03-30T05:08:46.339Z,13.60
2018-03-30T05:09:49.687Z,13.68
2018-03-30T05:10:52.916Z,13.40
2018-03-30T05:11:56.104Z,13.75
2018-03-30T05:12:59.315Z,13.30
2018-03-30T05:14:02.545Z,15.48
2018-03-30T05:15:05.780Z,13.80
2018-03-30T05:16:09.002Z,13.20
2018-03-30T05:17:12.225Z,13.48
2018-03-30T05:18:16.224Z,13.13
2018-03-30T05:19:20.218Z,13.45
2018-03-30T05:20:24.196Z,12.65
2018-03-30T05:21:27.430Z,14.35
2018-03-30T05:22:30.715Z,13.80
2018-03-30T05:23:33.943Z,12.43
2018-03-30T05:24:37.169Z,13.35
2018-03-30T05:25:40.386Z,14.55
2018-03-30T05:26:43.643Z,12.57
2018-03-30T05:27:47.633Z,11.63
2018-03-30T05:28:51.653Z,14.40
2018-03-30T05:29:54.867Z,12.90
2018-03-30T05:30:58.076Z,13.75
2018-03-30T05:32:02.189Z,12.60
2018-03-30T05:33:06.095Z,13.25
2018-03-30T05:34:10.077Z,13.77
2018-03-30T05:35:13.389Z,12.75
2018-03-30T05:36:16.607Z,13.23
2018-03-30T05:37:19.813Z,12.93
2018-03-30T05:38:23.143Z,13.00
2018-03-30T05:39:27.317Z,13.98
2018-03-30T05:40:30.578Z,13.40
2018-03-30T05:41:33.761Z,13.27
2018-03-30T05:42:36.977Z,14.10
2018-03-30T05:43:41.012Z,13.02
2018-03-30T05:44:44.212Z,12.35
2018-03-30T05:45:48.287Z,12.73
2018-03-30T05:46:51.508Z,14.13
2018-03-30T05:47:54.720Z,13.40
2018-03-30T05:48:58.708Z,13.18
2018-03-30T05:50:01.947Z,12.35
2018-03-30T05:51:05.160Z,13.98
2018-03-30T05:52:08.408Z,13.45
2018-03-30T05:53:11.634Z,14.52
2018-03-30T05:54:14.898Z,14.73
2018-03-30T05:55:18.121Z,14.05
2018-03-30T05:56:22.108Z,13.52
2018-03-30T05:57:26.192Z,15.10
2018-03-30T05:58:29.392Z,14.77
2018-03-30T05:59:32.618Z,13.73
2018-03-30T06:00:35.857Z,15.93
2018-03-30T06:01:39.074Z,13.88
2018-03-30T06:02:42.293Z,17.05
2018-03-30T06:03:45.521Z,15.18
2018-03-30T06:04:49.507Z,13.13
2018-03-30T06:05:52.725Z,15.23
2018-03-30T06:06:55.934Z,15.35
2018-03-30T06:07:59.190Z,14.70
2018-03-30T06:09:02.428Z,15.32
2018-03-30T06:10:05.636Z,15.00
2018-03-30T06:11:09.628Z,14.20
2018-03-30T06:12:13.656Z,14.82
2018-03-30T06:13:16.889Z,15.63
2018-03-30T06:14:20.110Z,14.65
2018-03-30T06:15:24.112Z,15.05
2018-03-30T06:16:28.089Z,14.02
2018-03-30T06:17:31.387Z,14.60
2018-03-30T06:18:35.383Z,14.20
2018-03-30T06:19:38.600Z,15.00
2018-03-30T06:20:41.820Z,14.50
2018-03-30T06:21:45.039Z,15.63
2018-03-30T06:22:49.021Z,16.12
2018-03-30T06:23:52.266Z,15.13
2018-03-30T06:24:55.548Z,15.07
2018-03-30T06:25:58.768Z,15.45
2018-03-30T06:27:01.988Z,15.35
2018-03-30T06:28:05.261Z,15.13
2018-03-30T06:29:08.447Z,14.87
2018-03-30T06:30:11.673Z,15.60
2018-03-30T06:31:14.906Z,14.95
2018-03-30T06:32:18.133Z,12.88
2018-03-30T06:33:21.345Z,12.88
2018-03-30T06:34:24.668Z,12.75
2018-03-30T06:35:28.636Z,11.60
2018-03-30T06:36:32.630Z,11.00
2018-03-30T06:37:36.630Z,12.40
2018-03-30T06:38:39.828Z,13.05
2018-03-30T06:39:43.816Z,13.25
2018-03-30T06:40:48.528Z,12.80
2018-03-30T06:41:51.841Z,13.27
2018-03-30T06:42:55.820Z,12.50
2018-03-30T06:43:59.031Z,11.43
2018-03-30T06:45:02.258Z,10.40
2018-03-30T06:46:05.471Z,9.20
2018-03-30T06:47:08.683Z,9.57
2018-03-30T06:48:11.902Z,17.33
2018-03-30T06:49:15.126Z,13.15
2018-03-30T06:50:19.101Z,14.50
2018-03-30T06:51:22.326Z,14.52
2018-03-30T06:52:25.557Z,11.60
2018-03-30T06:53:28.791Z,11.82
2018-03-30T06:54:32.018Z,10.85
2018-03-30T06:55:35.243Z,11.15
2018-03-30T06:56:39.244Z,9.95
2018-03-30T06:57:43.267Z,9.15
2018-03-30T06:58:46.445Z,8.77
2018-03-30T06:59:50.405Z,10.48
2018-03-30T07:00:53.610Z,8.88
2018-03-30T07:01:58.022Z,15.27
2018-03-30T07:03:01.997Z,10.95
2018-03-30T07:04:05.217Z,8.85
2018-03-30T07:05:09.196Z,8.07
2018-03-30T07:06:13.335Z,7.93
2018-03-30T07:07:17.345Z,8.13
2018-03-30T07:08:20.561Z,8.95
2018-03-30T07:09:23.830Z,8.20
2018-03-30T07:10:27.047Z,8.02
2018-03-30T07:11:31.031Z,7.75
2018-03-30T07:12:34.261Z,8.55
2018-03-30T07:13:38.232Z,8.15
2018-03-30T07:14:41.452Z,8.45
2018-03-30T07:15:44.735Z,7.75
2018-03-30T07:16:47.939Z,7.32
2018-03-30T07:17:51.148Z,8.60
2018-03-30T07:18:54.366Z,8.25
2018-03-30T07:19:58.333Z,7.80
2018-03-30T07:21:01.541Z,7.90
2018-03-30T07:22:05.520Z,8.07
2018-03-30T07:23:08.735Z,8.05
2018-03-30T07:24:11.947Z,8.10
2018-03-30T07:25:15.190Z,8.85
2018-03-30T07:26:19.174Z,8.68
2018-03-30T07:27:23.148Z,7.80
2018-03-30T07:28:26.381Z,9.65
2018-03-30T07:29:30.361Z,8.32
2018-03-30T07:30:33.564Z,8.85
2018-03-30T07:31:36.789Z,9.18
2018-03-30T07:32:39.980Z,11.10
2018-03-30T07:33:43.206Z,8.80
2018-03-30T07:34:47.196Z,9.60
2018-03-30T07:35:50.402Z,8.50
2018-03-30T07:36:53.603Z,8.38
2018-03-30T07:37:56.861Z,8.45
2018-03-30T07:39:00.830Z,7.95
2018-03-30T07:40:04.043Z,7.70
2018-03-30T07:41:07.256Z,8.90
2018-03-30T07:42:10.486Z,8.95
2018-03-30T07:43:13.683Z,8.40
2018-03-30T07:44:17.693Z,7.97
2018-03-30T07:45:20.920Z,8.65
2018-03-30T07:46:24.119Z,9.15
2018-03-30T07:47:27.430Z,8.73
2018-03-30T07:48:31.402Z,9.45
2018-03-30T07:49:34.714Z,9.77
2018-03-30T07:50:38.768Z,8.70
2018-03-30T07:51:41.955Z,9.38
2018-03-30T07:52:45.184Z,10.45
2018-03-30T07:53:49.162Z,8.93
2018-03-30T07:54:52.377Z,8.80
2018-03-30T07:55:55.654Z,9.70
2018-03-30T07:56:58.882Z,9.02
2018-03-30T07:58:02.092Z,8.70
2018-03-30T07:59:05.314Z,9.10
2018-03-30T08:00:08.527Z,9.23
2018-03-30T08:01:11.743Z,9.30
2018-03-30T08:02:14.952Z,9.38
2018-03-30T08:03:18.242Z,8.68
2018-03-30T08:04:22.207Z,9.35
2018-03-30T08:05:25.408Z,9.38
2018-03-30T08:06:29.391Z,9.68
2018-03-30T08:07:32.672Z,9.20
2018-03-30T08:08:35.924Z,9.57
2018-03-30T08:09:39.145Z,9.60
2018-03-30T08:10:43.121Z,10.52
2018-03-30T08:11:46.369Z,8.90
2018-03-30T08:12:50.719Z,9.15
2018-03-30T08:13:54.794Z,9.32
2018-03-30T08:14:57.992Z,9.10
2018-03-30T08:16:01.267Z,7.45
2018-03-30T08:17:04.503Z,9.18
2018-03-30T08:18:07.739Z,8.75
2018-03-30T08:19:11.013Z,9.30
2018-03-30T08:20:14.255Z,7.70
2018-03-30T08:21:18.397Z,8.10
2018-03-30T08:22:21.628Z,8.48
2018-03-30T08:23:25.647Z,7.90
2018-03-30T08:24:29.605Z,7.35
2018-03-30T08:25:32.912Z,7.70
2018-03-30T08:26:36.916Z,7.18
2018-03-30T08:27:40.109Z,5.80
2018-03-30T08:28:43.407Z,6.12
2018-03-30T08:29:46.592Z,6.25
2018-03-30T08:30:49.830Z,4.72
2018-03-30T08:31:53.003Z,4.90
2018-03-30T08:32:56.221Z,4.25
2018-03-30T08:34:00.228Z,5.57
2018-03-30T08:35:03.519Z,5.70
2018-03-30T08:36:06.715Z,4.25
2018-03-30T08:37:09.934Z,3.70
2018-03-30T08:38:13.176Z,3.92
2018-03-30T08:39:16.409Z,3.92
2018-03-30T08:40:19.741Z,3.42
2018-03-30T08:41:22.964Z,3.22
2018-03-30T08:42:26.220Z,4.40
2018-03-30T08:43:29.429Z,3.55
2018-03-30T08:44:32.634Z,4.25
2018-03-30T08:45:35.848Z,3.30
2018-03-30T08:46:39.078Z,4.55
2018-03-30T08:47:42.300Z,3.87
2018-03-30T08:48:45.530Z,3.25
2018-03-30T08:49:48.712Z,3.47
2018-03-30T08:50:51.919Z,4.30
2018-03-30T08:51:55.136Z,4.28
2018-03-30T08:52:58.376Z,3.30
2018-03-30T08:54:01.689Z,4.43
2018-03-30T08:55:05.676Z,3.87
2018-03-30T08:56:09.657Z,3.70
2018-03-30T08:57:12.864Z,3.53
2018-03-30T08:58:16.875Z,3.90
2018-03-30T08:59:20.865Z,3.40
2018-03-30T09:00:24.833Z,3.90
2018-03-30T09:01:28.054Z,3.05
2018-03-30T09:02:32.045Z,3.87
2018-03-30T09:03:36.055Z,3.22
2018-03-30T09:04:40.037Z,3.62
2018-03-30T09:05:44.029Z,3.85
2018-03-30T09:06:48.732Z,3.65
2018-03-30T09:07:51.999Z,3.05
2018-03-30T09:08:55.963Z,3.22
2018-03-30T09:09:59.175Z,3.30
2018-03-30T09:11:02.410Z,3.35
2018-03-30T09:12:05.713Z,4.22
2018-03-30T09:13:09.684Z,3.40
2018-03-30T09:14:12.885Z,3.42
2018-03-30T09:15:16.880Z,3.10
2018-03-30T09:16:20.874Z,2.75
2018-03-30T09:17:24.097Z,4.28
2018-03-30T09:18:27.297Z,3.30
2018-03-30T09:19:30.606Z,3.65
2018-03-30T09:20:33.829Z,3.20
2018-03-30T09:21:37.781Z,3.17
2018-03-30T09:22:41.002Z,3.85
2018-03-30T09:23:45.062Z,2.92
2018-03-30T09:24:48.270Z,3.30
2018-03-30T09:25:52.258Z,3.65
2018-03-30T09:26:55.480Z,3.22
2018-03-30T09:27:58.710Z,3.37
2018-03-30T09:29:02.159Z,3.25
2018-03-30T09:30:06.129Z,3.10
2018-03-30T09:31:10.854Z,3.65
2018-03-30T09:32:14.844Z,4.20
2018-03-30T09:33:23.658Z,3.45
2018-03-30T09:34:26.944Z,2.80
2018-03-30T09:35:30.922Z,2.60
2018-03-30T09:36:34.133Z,2.33
2018-03-30T09:37:37.356Z,2.75
2018-03-30T09:38:40.564Z,2.92
2018-03-30T09:39:43.785Z,3.08
2018-03-30T09:40:46.998Z,2.95
2018-03-30T09:41:50.208Z,2.42
2018-03-30T09:42:53.443Z,3.20
2018-03-30T09:43:56.649Z,3.05
2018-03-30T09:44:59.856Z,3.10
2018-03-30T09:46:03.189Z,3.05
2018-03-30T09:47:06.436Z,3.87
2018-03-30T09:48:09.628Z,2.33
2018-03-30T09:49:13.604Z,2.47
2018-03-30T09:50:16.838Z,3.35
2018-03-30T09:51:20.821Z,2.78
2018-03-30T09:52:24.799Z,2.08
2018-03-30T09:53:28.006Z,2.40
2018-03-30T09:54:32.006Z,2.20
2018-03-30T09:55:36.002Z,2.62
2018-03-30T09:56:39.225Z,2.85
2018-03-30T09:57:42.512Z,3.78
2018-03-30T09:58:45.775Z,3.15
2018-03-30T09:59:49.845Z,3.65
2018-03-30T10:00:53.069Z,3.05
2018-03-30T10:01:56.292Z,3.30
2018-03-30T10:03:04.352Z,3.53
2018-03-30T10:04:08.498Z,3.70
2018-03-30T10:05:11.727Z,3.50
2018-03-30T10:06:15.001Z,4.72
2018-03-30T10:08:28.531Z,4.50
2018-03-30T10:09:32.512Z,4.50
2018-03-30T10:10:36.506Z,4.80
2018-03-30T10:11:40.572Z,5.15
2018-03-30T10:12:43.725Z,6.70
2018-03-30T10:13:46.950Z,4.70
2018-03-30T10:14:50.162Z,3.42
2018-03-30T10:15:53.395Z,4.95
2018-03-30T10:16:56.592Z,3.30
2018-03-30T10:17:59.818Z,3.60
2018-03-30T10:19:03.835Z,4.10
2018-03-30T10:20:07.138Z,3.97
2018-03-30T10:21:10.352Z,5.43
2018-03-30T10:22:13.578Z,4.10
2018-03-30T10:23:17.573Z,4.43
2018-03-30T10:24:21.635Z,3.97
2018-03-30T10:25:24.832Z,4.90
2018-03-30T10:26:28.076Z,4.12
2018-03-30T10:27:31.351Z,3.35
2018-03-30T10:28:34.619Z,3.47
2018-03-30T10:29:38.574Z,3.30
2018-03-30T10:30:42.523Z,5.78
2018-03-30T10:31:45.733Z,2.72
2018-03-30T10:32:48.965Z,2.65
2018-03-30T10:33:52.956Z,3.00
2018-03-30T10:34:57.086Z,4.43
2018-03-30T10:36:01.081Z,2.17
2018-03-30T10:37:05.833Z,1.60
2018-03-30T10:38:09.029Z,1.70
2018-03-30T10:39:12.220Z,1.70
2018-03-30T10:40:15.435Z,2.28
2018-03-30T10:41:19.466Z,1.45
2018-03-30T10:42:22.662Z,2.05
2018-03-30T10:43:25.916Z,1.40
2018-03-30T10:44:29.929Z,1.48
2018-03-30T10:45:33.135Z,2.00
2018-03-30T10:46:36.392Z,1.65
2018-03-30T10:47:40.365Z,2.10
2018-03-30T10:48:43.582Z,1.40
2018-03-30T10:49:46.768Z,3.20
2018-03-30T10:50:50.013Z,1.50
2018-03-30T10:51:53.217Z,2.00
2018-03-30T10:52:56.437Z,4.12
2018-03-30T10:53:59.651Z,1.55
2018-03-30T10:55:03.676Z,2.28
2018-03-30T10:56:07.662Z,2.10
2018-03-30T10:57:11.642Z,2.25
2018-03-30T10:58:15.082Z,1.58
2018-03-30T10:59:18.343Z,2.47
2018-03-30T11:00:22.339Z,1.77
2018-03-30T11:01:26.360Z,1.92
2018-03-30T11:02:29.841Z,1.87
2018-03-30T11:03:33.854Z,1.90
2018-03-30T11:04:37.817Z,1.60
2018-03-30T11:05:41.825Z,1.67
2018-03-30T11:06:45.805Z,2.75
2018-03-30T11:07:49.852Z,4.43
2018-03-30T11:08:53.077Z,1.42
2018-03-30T11:09:56.273Z,1.48
2018-03-30T11:10:59.502Z,1.62
2018-03-30T11:12:02.695Z,1.23
2018-03-30T11:13:05.913Z,1.83
2018-03-30T11:14:09.124Z,1.35
2018-03-30T11:15:13.092Z,1.50
2018-03-30T11:16:16.325Z,0.80
2018-03-30T11:17:19.553Z,1.92
2018-03-30T11:18:22.768Z,1.30
2018-03-30T11:19:26.748Z,1.55
2018-03-30T11:20:29.974Z,1.85
2018-03-30T11:21:33.205Z,1.75
2018-03-30T11:22:36.548Z,1.70
2018-03-30T11:23:39.790Z,1.50
2018-03-30T11:24:42.989Z,1.40
2018-03-30T11:25:46.977Z,3.45
2018-03-30T11:26:51.025Z,8.82
2018-03-30T11:27:54.236Z,1.40
2018-03-30T11:28:57.457Z,1.75
2018-03-30T11:30:01.429Z,1.60
2018-03-30T11:31:04.657Z,1.30
2018-03-30T11:32:07.872Z,1.35
2018-03-30T11:33:11.109Z,1.50
2018-03-30T11:34:15.090Z,1.50
2018-03-30T11:35:18.304Z,2.28
2018-03-30T11:36:21.519Z,1.77
2018-03-30T11:37:24.757Z,1.90
2018-03-30T11:38:28.737Z,1.27
2018-03-30T11:39:33.456Z,1.10
2018-03-30T11:40:36.683Z,1.33
2018-03-30T11:41:39.913Z,1.20
2018-03-30T11:42:43.129Z,2.20
2018-03-30T11:43:46.354Z,1.20
2018-03-30T11:44:49.555Z,1.10
2018-03-30T11:45:53.539Z,1.35
2018-03-30T11:46:56.757Z,0.73
2018-03-30T11:48:00.750Z,1.17
2018-03-30T11:49:03.984Z,0.85
2018-03-30T11:50:07.218Z,1.52
2018-03-30T11:51:11.953Z,2.58
2018-03-30T11:52:15.916Z,1.00
2018-03-30T11:53:19.119Z,0.60
2018-03-30T11:54:23.095Z,1.20
2018-03-30T11:55:26.300Z,0.70
2018-03-30T11:56:30.280Z,0.65
2018-03-30T11:57:33.537Z,0.98
2018-03-30T11:58:36.749Z,1.45
2018-03-30T11:59:41.480Z,0.90
2018-03-30T12:00:44.712Z,1.62
2018-03-30T12:01:47.978Z,0.93
2018-03-30T12:02:51.229Z,1.20
2018-03-30T12:03:54.420Z,0.80
2018-03-30T12:04:57.740Z,1.27
2018-03-30T12:06:01.712Z,0.60
2018-03-30T12:07:05.689Z,1.12
2018-03-30T12:08:10.432Z,0.82
2018-03-30T12:09:13.716Z,0.70
2018-03-30T12:10:17.716Z,1.30
2018-03-30T12:11:20.905Z,0.68
2018-03-30T12:12:24.119Z,1.58
2018-03-30T12:13:27.340Z,0.73
2018-03-30T12:14:30.579Z,0.85
2018-03-30T12:15:33.891Z,0.77
2018-03-30T12:16:37.072Z,2.47
2018-03-30T12:17:40.313Z,1.25
2018-03-30T12:18:43.515Z,3.90
2018-03-30T12:19:46.746Z,0.50
2018-03-30T12:20:49.972Z,0.43
2018-03-30T12:21:53.287Z,1.17
2018-03-30T12:22:56.470Z,1.25
2018-03-30T12:23:59.676Z,0.85
2018-03-30T12:25:02.982Z,1.33
2018-03-30T12:26:06.955Z,0.50
2018-03-30T12:27:10.161Z,0.90
2018-03-30T12:28:14.184Z,0.70
2018-03-30T12:29:17.476Z,1.30
2018-03-30T12:30:21.411Z,0.93
2018-03-30T12:31:24.642Z,1.60
2018-03-30T12:32:27.854Z,1.30
2018-03-30T12:33:31.080Z,0.77
2018-03-30T12:34:35.049Z,2.22
2018-03-30T12:35:38.280Z,2.22
2018-03-30T12:36:42.267Z,7.32
2018-03-30T12:37:46.235Z,1.52
2018-03-30T12:38:49.469Z,1.87
2018-03-30T12:39:53.443Z,1.50
2018-03-30T12:40:56.721Z,2.12
2018-03-30T12:41:59.905Z,1.45
2018-03-30T12:43:03.875Z,2.47
2018-03-30T12:44:07.079Z,1.77
2018-03-30T12:45:11.064Z,1.60
2018-03-30T12:46:14.410Z,1.65
2018-03-30T12:47:17.607Z,1.75
2018-03-30T12:48:20.852Z,2.15
2018-03-30T12:49:24.836Z,4.43
2018-03-30T12:50:28.055Z,1.83
2018-03-30T12:51:31.259Z,1.83
2018-03-30T12:52:34.468Z,1.70
2018-03-30T12:53:37.690Z,2.75
2018-03-30T12:54:41.668Z,2.40
2018-03-30T12:55:44.892Z,1.65
2018-03-30T12:56:48.096Z,4.05
2018-03-30T12:57:51.345Z,1.35
2018-03-30T12:58:54.577Z,1.70
2018-03-30T12:59:57.792Z,1.75
2018-03-30T13:01:01.780Z,1.10
2018-03-30T13:02:06.496Z,1.35
2018-03-30T13:03:09.814Z,4.15
2018-03-30T13:04:13.810Z,2.55
2018-03-30T13:05:17.801Z,1.62
2018-03-30T13:06:21.778Z,1.42
2018-03-30T13:07:25.753Z,1.08
2018-03-30T13:08:28.969Z,1.27
2018-03-30T13:09:32.279Z,1.05
2018-03-30T13:10:36.260Z,1.12
2018-03-30T13:11:39.460Z,3.15
2018-03-30T13:12:42.685Z,1.37
2018-03-30T13:13:45.926Z,2.42
2018-03-30T13:14:49.887Z,2.15
2018-03-30T13:15:54.613Z,1.83
2018-03-30T13:16:57.858Z,1.98
2018-03-30T13:18:01.061Z,1.65
2018-03-30T13:19:04.366Z,1.15
2018-03-30T13:20:07.603Z,1.60
2018-03-30T13:21:10.823Z,1.62
2018-03-30T13:22:14.028Z,1.30
2018-03-30T13:23:18.016Z,1.73
2018-03-30T13:24:21.233Z,1.80
2018-03-30T13:25:24.467Z,1.70
2018-03-30T13:26:27.699Z,1.60
2018-03-30T13:27:30.904Z,1.70
2018-03-30T13:28:34.118Z,1.35
2018-03-30T13:29:37.420Z,1.60
2018-03-30T13:30:41.416Z,1.55
2018-03-30T13:31:44.627Z,3.10
2018-03-30T13:32:47.833Z,1.95
2018-03-30T13:33:51.056Z,4.00
2018-03-30T13:34:54.354Z,1.62
2018-03-30T13:35:57.513Z,1.80
2018-03-30T13:37:02.257Z,2.05
2018-03-30T13:38:06.246Z,1.90
2018-03-30T13:39:10.238Z,2.95
2018-03-30T13:40:13.495Z,1.80
2018-03-30T13:41:16.705Z,2.28
2018-03-30T13:42:19.937Z,1.65
2018-03-30T13:43:23.140Z,1.85
2018-03-30T13:44:26.403Z,1.67
2018-03-30T13:45:29.600Z,3.00
2018-03-30T13:46:32.814Z,1.65
2018-03-30T13:47:36.061Z,3.35
2018-03-30T13:48:39.276Z,1.92
2018-03-30T13:49:44.001Z,1.67
2018-03-30T13:50:48.005Z,2.30
2018-03-30T13:51:59.840Z,2.05
2018-03-30T13:53:20.632Z,2.50
2018-03-30T13:54:28.497Z,2.22
2018-03-30T13:55:32.489Z,2.35
2018-03-30T13:56:37.180Z,2.45
2018-03-30T13:57:43.860Z,2.90
2018-03-30T13:58:53.685Z,2.35
2018-03-30T13:59:56.890Z,3.22
2018-03-30T14:01:05.430Z,2.60
2018-03-30T14:03:46.062Z,2.25
2018-03-30T14:04:59.856Z,2.45
2018-03-30T14:06:14.624Z,3.10